Rhome, Texas
Current Conditions -  °F | °C
As of 2:53 AM on Monday 24 Nov 2014 (Local Time) from KAFW Reporting Station
Clear Clear  
Wind Chill: 41°   Ceiling: Unl
Heat Index: 46°   Visibility: 10mi
Dew Point: 34°   Wind: 9mph
Humidity: 63%   Direction: 280°W
Pressure: 29.9"   Gusts: NA
Location:  33.05°N, 97.47°W
Report Text: KAFW 240853Z 28008KT 10SM CLR 08/01 A2990 RMK AO2 SLP121 T00780011 53020
Loading
Personal Weather Stations






























Interactive Weather Map New forecast layout! Learn more

10-Day Weather Forecast

Advertisements
Track Severe Weather on mobile